Time;durP1;ratioP1;P1;durP2;ratioP2;P2;SDS_P1;SDS_P2;PMS_P1;PMS_P2;Temp;Humidity;BMP_temperature;BMP_pressure;BME280_temperature;BME280_humidity;BME280_pressure;Samples;Min_cycle;Max_cycle;Signal;HPM_P1;HPM_P2
2022/03/06 00:01:40;;;;;;;63.83;29.73;;;2.80;99.90;;;;;;5074372;28;20427;-73
2022/03/06 00:04:13;;;;;;;55.80;29.53;;;2.90;99.90;;;;;;5074852;28;20482;-75
2022/03/06 00:06:41;;;;;;;61.47;30.70;;;2.90;99.90;;;;;;5074963;28;20500;-74
2022/03/06 00:09:08;;;;;;;58.80;29.40;;;2.90;99.90;;;;;;5074869;28;20450;-78
2022/03/06 00:11:35;;;;;;;61.10;29.40;;;2.90;99.90;;;;;;5075298;28;20438;-78
2022/03/06 00:14:02;;;;;;;60.90;30.73;;;2.90;99.90;;;;;;5074739;28;20537;-75
2022/03/06 00:16:28;;;;;;;51.47;28.73;;;2.80;99.90;;;;;;5074655;28;20447;-75
2022/03/06 00:18:56;;;;;;;56.70;29.50;;;2.90;99.90;;;;;;5074485;28;20473;-78
2022/03/06 00:21:23;;;;;;;58.70;29.57;;;2.80;99.90;;;;;;5071050;28;20451;-76
2022/03/06 00:23:51;;;;;;;58.93;29.50;;;2.80;99.90;;;;;;5074359;28;21000;-75
2022/03/06 00:26:18;;;;;;;60.20;29.70;;;2.80;99.90;;;;;;5074751;28;20439;-75
2022/03/06 00:28:47;;;;;;;57.20;29.63;;;2.70;99.90;;;;;;5078004;28;20447;-77
2022/03/06 00:31:16;;;;;;;58.70;30.63;;;2.70;99.90;;;;;;5089510;28;20854;-88
2022/03/06 00:33:44;;;;;;;52.97;28.43;;;2.60;99.90;;;;;;5088326;28;20500;-87
2022/03/06 00:36:14;;;;;;;52.90;29.43;;;2.70;99.90;;;;;;5087168;28;20431;-84
2022/03/06 00:38:43;;;;;;;62.70;30.67;;;2.70;99.90;;;;;;5087473;28;20446;-82
2022/03/06 00:41:12;;;;;;;61.43;31.37;;;2.70;99.90;;;;;;5086323;28;20445;-87
2022/03/06 00:43:39;;;;;;;55.87;29.00;;;2.70;99.90;;;;;;5085688;28;20487;-89
2022/03/06 00:46:07;;;;;;;56.47;30.40;;;2.70;99.90;;;;;;5082728;28;20426;-92
2022/03/06 00:48:34;;;;;;;62.45;34.97;;;2.70;99.90;;;;;;5084051;28;20423;-89
2022/03/06 00:51:02;;;;;;;60.93;32.80;;;2.70;99.90;;;;;;5083664;28;20577;-86
2022/03/06 00:53:34;;;;;;;59.00;29.70;;;2.80;99.90;;;;;;5083066;28;20488;-84
2022/03/06 00:56:02;;;;;;;55.97;29.10;;;2.80;99.90;;;;;;5082897;28;20453;-83
2022/03/06 00:58:30;;;;;;;55.53;28.33;;;2.70;99.90;;;;;;5083249;28;20500;-73
2022/03/06 01:00:57;;;;;;;62.27;30.47;;;2.70;99.90;;;;;;5082093;28;20443;-87
2022/03/06 01:03:24;;;;;;;55.97;28.47;;;2.70;99.90;;;;;;5081979;28;20493;-74
2022/03/06 01:05:52;;;;;;;55.53;29.23;;;2.70;99.90;;;;;;5086039;28;20434;-79
2022/03/06 01:08:19;;;;;;;54.10;29.40;;;2.80;99.90;;;;;;5086396;28;20461;-90
2022/03/06 01:10:47;;;;;;;53.20;28.07;;;2.70;99.90;;;;;;5086544;28;20442;-86
2022/03/06 01:13:15;;;;;;;62.33;37.70;;;2.50;99.90;;;;;;5080532;28;20419;-84
2022/03/06 01:15:43;;;;;;;55.60;32.20;;;2.60;99.90;;;;;;5089583;28;20202;-75
2022/03/06 01:18:11;;;;;;;53.20;30.57;;;2.60;99.90;;;;;;5091672;28;20461;-76
2022/03/06 01:20:41;;;;;;;53.93;29.40;;;2.60;99.90;;;;;;5088062;28;20443;-84
2022/03/06 01:23:09;;;;;;;55.47;29.10;;;2.70;99.90;;;;;;5088882;28;20482;-88
2022/03/06 01:25:36;;;;;;;52.03;28.60;;;2.60;99.90;;;;;;5090894;28;20435;-89
2022/03/06 01:28:04;;;;;;;57.20;29.47;;;2.60;99.90;;;;;;5082146;28;20450;-88
2022/03/06 01:30:31;;;;;;;54.53;29.03;;;2.70;99.90;;;;;;5083107;28;20802;-87
2022/03/06 01:33:00;;;;;;;54.43;29.13;;;2.60;99.90;;;;;;5080893;28;20438;-84
2022/03/06 01:35:27;;;;;;;55.50;29.37;;;2.70;99.90;;;;;;5083489;28;20492;-77
2022/03/06 01:37:54;;;;;;;52.90;28.33;;;2.50;99.90;;;;;;5081001;28;20446;-90
2022/03/06 01:40:21;;;;;;;52.50;28.27;;;2.50;99.90;;;;;;5080789;28;20433;-83
2022/03/06 01:42:54;;;;;;;52.97;29.43;;;2.40;99.90;;;;;;5079927;28;20854;-84
2022/03/06 01:45:23;;;;;;;51.37;28.30;;;2.50;99.90;;;;;;5080995;28;20431;-83
2022/03/06 01:47:52;;;;;;;53.80;29.37;;;2.50;99.90;;;;;;5078373;28;20447;-83
2022/03/06 01:50:22;;;;;;;50.87;27.40;;;2.60;99.90;;;;;;5077047;28;20454;-84
2022/03/06 01:52:53;;;;;;;55.97;28.73;;;2.50;99.90;;;;;;5079493;28;20453;-82
2022/03/06 01:55:24;;;;;;;53.87;28.80;;;2.60;99.90;;;;;;5079822;28;20441;-76
2022/03/06 01:57:53;;;;;;;54.73;29.07;;;2.50;99.90;;;;;;5079251;28;20443;-73
2022/03/06 02:00:22;;;;;;;51.60;28.97;;;2.60;99.90;;;;;;5076491;28;20435;-73
2022/03/06 02:02:49;;;;;;;59.63;29.43;;;2.50;99.90;;;;;;5079323;28;20474;-83
2022/03/06 02:05:21;;;;;;;53.73;28.10;;;2.50;99.90;;;;;;5079788;28;20430;-87
2022/03/06 02:07:48;;;;;;;52.67;29.10;;;2.60;99.90;;;;;;5075826;28;21012;-73
2022/03/06 02:10:16;;;;;;;55.93;28.40;;;2.40;99.90;;;;;;5078140;28;20453;-91
2022/03/06 02:12:44;;;;;;;57.40;28.90;;;2.50;99.90;;;;;;5079587;28;20441;-92
2022/03/06 02:15:14;;;;;;;55.00;28.73;;;2.40;99.90;;;;;;5080352;28;20442;-90
2022/03/06 02:17:41;;;;;;;55.27;29.53;;;2.50;99.90;;;;;;5077169;28;20466;-89
2022/03/06 02:20:10;;;;;;;57.50;29.63;;;2.50;99.90;;;;;;5076007;28;20458;-89
2022/03/06 02:22:41;;;;;;;55.13;29.50;;;2.40;99.90;;;;;;5076599;28;20442;-85
2022/03/06 02:25:09;;;;;;;54.07;30.03;;;2.30;99.90;;;;;;5074185;28;20446;-75
2022/03/06 02:27:36;;;;;;;58.77;30.00;;;2.40;99.90;;;;;;5074870;28;20434;-92
2022/03/06 02:30:06;;;;;;;53.30;29.30;;;2.40;99.90;;;;;;5074512;28;20442;-90
2022/03/06 02:32:33;;;;;;;48.00;27.20;;;2.30;99.90;;;;;;5074358;28;20447;-90
2022/03/06 02:35:00;;;;;;;59.27;29.53;;;2.20;99.90;;;;;;5073058;28;20465;-77
2022/03/06 02:37:26;;;;;;;56.57;28.30;;;2.20;99.90;;;;;;5072154;28;20961;-74
2022/03/06 02:39:55;;;;;;;55.73;28.43;;;2.20;99.90;;;;;;5075280;28;20450;-75
2022/03/06 02:42:25;;;;;;;54.40;29.43;;;2.20;99.90;;;;;;5075565;28;20446;-74
2022/03/06 02:44:52;;;;;;;51.40;27.77;;;2.20;99.90;;;;;;5075756;28;20450;-73
2022/03/06 02:47:19;;;;;;;55.67;30.17;;;2.10;99.90;;;;;;5074416;28;20584;-74
2022/03/06 02:49:46;;;;;;;47.43;26.83;;;2.10;99.90;;;;;;5077078;28;20485;-74
2022/03/06 02:52:13;;;;;;;47.97;26.80;;;2.10;99.90;;;;;;5077895;28;20447;-81
2022/03/06 02:54:40;;;;;;;54.23;29.70;;;2.20;99.90;;;;;;5076690;28;20446;-74
2022/03/06 02:57:10;;;;;;;57.03;28.47;;;2.10;99.90;;;;;;5074396;28;20510;-75
2022/03/06 02:59:37;;;;;;;55.60;29.17;;;2.20;99.90;;;;;;5075420;28;20441;-93
2022/03/06 03:02:05;;;;;;;51.43;26.50;;;2.00;99.90;;;;;;5072073;28;20450;-80
2022/03/06 03:04:32;;;;;;;44.57;26.13;;;1.90;99.90;;;;;;5074840;28;20919;-80
2022/03/06 03:06:59;;;;;;;50.70;28.10;;;1.90;99.90;;;;;;5074056;28;20427;-74
2022/03/06 03:09:26;;;;;;;52.63;27.73;;;1.90;99.90;;;;;;5073487;28;20443;-80
2022/03/06 03:11:54;;;;;;;51.43;26.90;;;1.90;99.90;;;;;;5073945;28;20532;-92
2022/03/06 03:14:23;;;;;;;53.63;26.63;;;1.80;99.90;;;;;;5073290;28;20445;-83
2022/03/06 03:16:50;;;;;;;48.80;26.77;;;1.80;99.90;;;;;;5073798;28;20431;-74
2022/03/06 03:19:18;;;;;;;52.80;28.00;;;1.80;99.90;;;;;;5075151;28;20466;-76
2022/03/06 03:21:45;;;;;;;53.33;28.23;;;1.80;99.90;;;;;;5078409;28;20813;-78
2022/03/06 03:24:12;;;;;;;51.80;27.57;;;1.80;99.90;;;;;;5078707;28;20486;-90
2022/03/06 03:26:39;;;;;;;48.37;26.47;;;1.90;99.90;;;;;;5077833;28;20964;-85
2022/03/06 03:29:05;;;;;;;49.80;26.33;;;1.80;99.90;;;;;;5077812;28;20443;-74
2022/03/06 03:31:34;;;;;;;51.90;27.03;;;1.70;99.90;;;;;;5077883;28;20440;-74
2022/03/06 03:34:01;;;;;;;52.00;26.90;;;1.70;99.90;;;;;;5080512;28;20447;-75
2022/03/06 03:36:27;;;;;;;62.17;32.53;;;1.70;99.90;;;;;;5080347;28;20420;-77
2022/03/06 03:38:54;;;;;;;54.27;28.23;;;1.80;99.90;;;;;;5081255;28;20213;-92
2022/03/06 03:41:22;;;;;;;49.97;26.87;;;1.70;99.90;;;;;;5079383;28;20442;-85
2022/03/06 03:43:52;;;;;;;48.60;26.17;;;1.60;99.90;;;;;;5082669;28;20517;-82
2022/03/06 03:46:19;;;;;;;50.47;26.67;;;1.70;99.90;;;;;;5083893;28;20526;-80
2022/03/06 03:48:49;;;;;;;52.93;27.50;;;1.70;99.90;;;;;;5079290;28;20861;-74
2022/03/06 03:51:16;;;;;;;51.57;26.07;;;1.70;99.90;;;;;;5079261;28;20454;-90
2022/03/06 03:53:43;;;;;;;57.70;27.67;;;1.60;99.90;;;;;;5079508;28;20461;-75
2022/03/06 03:56:10;;;;;;;52.77;27.53;;;1.60;99.90;;;;;;5079901;28;20442;-74
2022/03/06 03:58:37;;;;;;;53.03;27.33;;;1.60;99.90;;;;;;5080916;28;20427;-75
2022/03/06 04:01:04;;;;;;;61.15;35.22;;;1.70;99.90;;;;;;5080203;28;20484;-78
2022/03/06 04:03:31;;;;;;;54.80;28.63;;;1.80;99.90;;;;;;5070815;28;20234;-75
2022/03/06 04:05:59;;;;;;;54.20;28.03;;;1.80;99.90;;;;;;5060216;28;20859;-75
2022/03/06 04:08:26;;;;;;;54.50;27.13;;;1.90;99.90;;;;;;5059099;28;20458;-75
2022/03/06 04:10:56;;;;;;;52.73;26.87;;;2.00;99.90;;;;;;5058425;28;20463;-74
2022/03/06 04:13:24;;;;;;;50.10;27.13;;;1.90;99.90;;;;;;5057107;28;20443;-74
2022/03/06 04:15:51;;;;;;;45.63;25.30;;;1.80;99.90;;;;;;5057071;28;20501;-75
2022/03/06 04:18:18;;;;;;;48.63;25.27;;;1.80;99.90;;;;;;5057817;28;20467;-76
2022/03/06 04:20:45;;;;;;;46.07;25.33;;;1.80;99.90;;;;;;5057339;28;20454;-74
2022/03/06 04:23:13;;;;;;;46.03;24.83;;;1.70;99.90;;;;;;5057906;28;20451;-74
2022/03/06 04:25:41;;;;;;;44.10;23.93;;;1.70;99.90;;;;;;5057514;28;20451;-74
2022/03/06 04:28:08;;;;;;;48.10;24.50;;;1.60;99.90;;;;;;5058046;28;20459;-76
2022/03/06 04:30:35;;;;;;;46.90;24.17;;;1.60;99.90;;;;;;5057544;28;20444;-89
2022/03/06 04:33:02;;;;;;;45.63;23.63;;;1.60;99.90;;;;;;5057312;28;20522;-79
2022/03/06 04:35:29;;;;;;;48.37;25.10;;;1.50;99.90;;;;;;5057401;28;20427;-75
2022/03/06 04:37:58;;;;;;;44.63;25.03;;;1.60;99.90;;;;;;5057416;28;20448;-88
2022/03/06 04:40:27;;;;;;;47.47;24.73;;;1.60;99.90;;;;;;5061505;28;20420;-92
2022/03/06 04:42:53;;;;;;;52.17;25.63;;;1.60;99.90;;;;;;5063136;28;20907;-93
2022/03/06 04:45:20;;;;;;;50.03;25.37;;;1.60;99.90;;;;;;5062095;28;20478;-75
2022/03/06 04:47:47;;;;;;;44.57;23.50;;;1.50;99.90;;;;;;5059840;28;20458;-74
2022/03/06 04:50:14;;;;;;;49.55;31.60;;;1.50;99.90;;;;;;5054588;28;20448;-92
2022/03/06 04:52:41;;;;;;;42.97;26.03;;;1.40;99.90;;;;;;5056319;28;20547;-74
2022/03/06 04:55:08;;;;;;;42.97;24.83;;;1.40;99.90;;;;;;5056905;28;20439;-75
2022/03/06 04:57:36;;;;;;;40.10;23.60;;;1.50;99.90;;;;;;5055973;28;20442;-75
2022/03/06 05:00:05;;;;;;;38.13;22.77;;;1.50;99.90;;;;;;5056061;28;20446;-74
2022/03/06 05:02:32;;;;;;;43.03;23.77;;;1.50;99.90;;;;;;5055420;28;20509;-74
2022/03/06 05:04:59;;;;;;;38.57;23.67;;;1.50;99.90;;;;;;5055498;28;20491;-91
2022/03/06 05:07:25;;;;;;;37.73;23.03;;;1.30;99.90;;;;;;5055623;28;20466;-75
2022/03/06 05:09:52;;;;;;;41.43;23.27;;;1.30;99.90;;;;;;5055240;28;20446;-87
2022/03/06 05:12:19;;;;;;;37.93;22.43;;;1.30;99.90;;;;;;5055939;28;20435;-74
2022/03/06 05:14:47;;;;;;;38.57;23.00;;;1.40;99.90;;;;;;5054904;28;20455;-74
2022/03/06 05:17:15;;;;;;;39.57;22.70;;;1.40;99.90;;;;;;5056099;28;20439;-74
2022/03/06 05:19:42;;;;;;;40.60;23.20;;;1.40;99.90;;;;;;5055192;28;20473;-85
2022/03/06 05:22:09;;;;;;;36.13;22.47;;;1.40;99.90;;;;;;5055308;28;20439;-80
2022/03/06 05:24:36;;;;;;;39.13;22.90;;;1.30;99.90;;;;;;5055175;28;21006;-83
2022/03/06 05:27:03;;;;;;;39.77;22.93;;;1.40;99.90;;;;;;5055025;28;20443;-74
2022/03/06 05:29:30;;;;;;;40.53;22.97;;;1.40;99.90;;;;;;5054236;28;20977;-75
2022/03/06 05:31:58;;;;;;;44.23;23.77;;;1.30;99.90;;;;;;5054935;28;20443;-73
2022/03/06 05:34:25;;;;;;;41.73;24.20;;;1.10;99.90;;;;;;5054845;28;20451;-74
2022/03/06 05:36:52;;;;;;;41.83;22.70;;;1.10;99.90;;;;;;5054756;28;20450;-74
2022/03/06 05:39:19;;;;;;;40.67;24.17;;;1.10;99.90;;;;;;5054216;28;20890;-74
2022/03/06 05:41:47;;;;;;;42.77;22.93;;;1.10;99.90;;;;;;5053223;28;20938;-74
2022/03/06 05:44:14;;;;;;;41.47;22.80;;;1.10;99.90;;;;;;5053774;28;21069;-76
2022/03/06 05:46:42;;;;;;;44.63;23.63;;;1.00;99.90;;;;;;5054028;28;20440;-76
2022/03/06 05:49:13;;;;;;;37.50;22.00;;;1.00;99.90;;;;;;5054177;28;20802;-75
2022/03/06 05:51:40;;;;;;;44.43;23.90;;;0.90;99.90;;;;;;5054337;28;21008;-74
2022/03/06 05:54:10;;;;;;;40.70;23.20;;;0.90;99.90;;;;;;5053957;28;20447;-75
2022/03/06 05:56:39;;;;;;;41.53;22.47;;;0.90;99.90;;;;;;5054395;28;20502;-74
2022/03/06 05:59:05;;;;;;;42.90;22.73;;;0.90;99.90;;;;;;5054163;28;20814;-92
2022/03/06 06:01:33;;;;;;;44.83;23.57;;;0.90;99.90;;;;;;5067796;28;20470;-74
2022/03/06 06:04:01;;;;;;;52.35;31.17;;;0.90;99.90;;;;;;5059786;28;20432;-93
2022/03/06 06:06:30;;;;;;;48.00;25.07;;;1.00;99.90;;;;;;5077991;28;20190;-89
2022/03/06 06:09:03;;;;;;;45.63;25.20;;;1.00;99.90;;;;;;5079601;28;20795;-93
2022/03/06 06:11:35;;;;;;;46.40;24.00;;;1.00;99.90;;;;;;5080796;28;20427;-93
2022/03/06 06:14:02;;;;;;;42.80;24.33;;;1.00;99.90;;;;;;5080449;28;20944;-74
2022/03/06 06:16:35;;;;;;;37.00;21.37;;;0.90;99.90;;;;;;5080341;28;20851;-93
2022/03/06 06:19:06;;;;;;;40.63;21.63;;;0.90;99.90;;;;;;5079280;28;20470;-90
2022/03/06 06:21:35;;;;;;;41.30;22.00;;;0.90;99.90;;;;;;5078708;28;20476;-92
2022/03/06 06:24:02;;;;;;;41.40;22.57;;;0.90;99.90;;;;;;5082282;28;20533;-92
2022/03/06 06:26:29;;;;;;;41.00;23.73;;;0.90;99.90;;;;;;5081120;28;20886;-94
2022/03/06 06:28:58;;;;;;;44.15;30.38;;;0.80;99.90;;;;;;5079687;28;20423;-90
2022/03/06 06:31:27;;;;;;;43.57;24.80;;;0.90;99.90;;;;;;5082363;28;20333;-87
2022/03/06 06:34:10;;;;;;;42.57;24.33;;;0.80;99.90;;;;;;5080947;28;20439;-94
2022/03/06 06:36:38;;;;;;;44.17;23.20;;;0.80;99.90;;;;;;5081546;28;20454;-92
2022/03/06 06:39:11;;;;;;;40.90;22.87;;;0.80;99.90;;;;;;5081071;28;20447;-94
2022/03/06 06:41:39;;;;;;;40.33;22.67;;;0.70;99.90;;;;;;5083567;28;20464;-94
2022/03/06 06:44:06;;;;;;;38.83;22.80;;;0.70;99.90;;;;;;5084050;28;20470;-93
2022/03/06 06:46:34;;;;;;;38.40;22.57;;;0.80;99.90;;;;;;5079962;28;21001;-77
2022/03/06 06:49:03;;;;;;;36.80;22.03;;;0.70;99.90;;;;;;5081259;28;20439;-93
2022/03/06 06:51:31;;;;;;;41.00;22.77;;;0.80;99.90;;;;;;5081306;28;20504;-92
2022/03/06 06:53:59;;;;;;;44.90;30.83;;;0.80;99.90;;;;;;5080936;28;20435;-82
2022/03/06 06:56:33;;;;;;;40.17;24.87;;;1.00;99.90;;;;;;5082529;28;20212;-92
2022/03/06 06:59:00;;;;;;;40.90;21.93;;;0.90;99.90;;;;;;5080422;28;20431;-87
2022/03/06 07:01:28;;;;;;;38.33;21.97;;;0.90;99.90;;;;;;5081911;28;20884;-92
2022/03/06 07:04:00;;;;;;;40.40;21.43;;;0.90;99.90;;;;;;5085360;28;20446;-93
2022/03/06 07:06:28;;;;;;;37.13;22.07;;;0.90;99.90;;;;;;5080451;28;20430;-94
2022/03/06 07:08:56;;;;;;;34.77;20.50;;;0.90;99.90;;;;;;5084521;28;20474;-91
2022/03/06 07:11:30;;;;;;;41.60;21.90;;;1.10;99.90;;;;;;5085244;28;20423;-83
2022/03/06 07:13:57;;;;;;;38.20;21.67;;;1.10;99.90;;;;;;5086258;28;20446;-80
2022/03/06 07:16:25;;;;;;;43.60;21.63;;;1.00;99.90;;;;;;5086605;28;20427;-93
2022/03/06 07:18:53;;;;;;;38.60;23.23;;;1.20;99.90;;;;;;5090613;28;20471;-74
2022/03/06 07:21:23;;;;;;;40.73;23.30;;;1.20;99.90;;;;;;5091528;28;20468;-93
2022/03/06 07:23:50;;;;;;;40.43;23.70;;;1.40;99.90;;;;;;5091190;28;20430;-92
2022/03/06 07:26:17;;;;;;;36.43;21.00;;;1.50;99.90;;;;;;5086620;28;20474;-84
2022/03/06 07:29:02;;;;;;;31.27;20.07;;;1.50;99.90;;;;;;5080210;28;20453;-91
2022/03/06 07:31:29;;;;;;;42.03;22.53;;;1.40;99.90;;;;;;5088125;28;20438;-93
2022/03/06 07:33:59;;;;;;;36.77;22.33;;;1.40;99.90;;;;;;5089248;28;20434;-92
2022/03/06 07:36:27;;;;;;;34.67;21.47;;;1.30;99.90;;;;;;5089964;28;20441;-90
2022/03/06 07:38:55;;;;;;;30.17;19.60;;;1.30;99.90;;;;;;5088988;28;20446;-93
2022/03/06 07:41:22;;;;;;;33.57;20.43;;;1.30;99.90;;;;;;5088151;28;20439;-91
2022/03/06 07:43:50;;;;;;;37.77;20.33;;;1.20;99.90;;;;;;5088596;28;20445;-93
2022/03/06 07:46:19;;;;;;;32.37;20.07;;;1.20;99.90;;;;;;5090086;28;20489;-91
2022/03/06 07:48:47;;;;;;;36.53;20.93;;;1.20;99.90;;;;;;5089584;28;20439;-93
2022/03/06 07:51:14;;;;;;;37.00;21.50;;;1.30;99.90;;;;;;5093307;28;20451;-94
2022/03/06 07:53:41;;;;;;;33.60;20.80;;;1.40;99.90;;;;;;5093434;28;20929;-89
2022/03/06 07:56:07;;;;;;;28.37;19.30;;;1.40;99.90;;;;;;5083157;28;20451;-90
2022/03/06 07:58:44;;;;;;;32.17;20.23;;;1.70;99.90;;;;;;5079714;28;20426;-92
2022/03/06 08:01:12;;;;;;;29.93;18.83;;;1.60;99.90;;;;;;5080592;28;20442;-93
2022/03/06 08:03:41;;;;;;;29.80;20.17;;;1.70;99.90;;;;;;5078781;28;20427;-92
2022/03/06 08:06:08;;;;;;;29.53;19.93;;;1.60;99.90;;;;;;5069917;28;20482;-85
2022/03/06 08:08:38;;;;;;;29.97;18.17;;;1.60;99.90;;;;;;5058894;28;20451;-89
2022/03/06 08:11:05;;;;;;;27.73;18.23;;;1.60;99.90;;;;;;5059891;28;20431;-87
2022/03/06 08:13:32;;;;;;;31.50;18.40;;;1.80;99.90;;;;;;5057873;28;20436;-92
2022/03/06 08:15:59;;;;;;;28.43;18.67;;;1.80;99.90;;;;;;5057317;28;20463;-87
2022/03/06 08:18:26;;;;;;;31.93;19.13;;;1.80;99.90;;;;;;5058465;28;20521;-91
2022/03/06 08:20:54;;;;;;;28.87;18.20;;;1.90;99.90;;;;;;5058913;28;20435;-92
2022/03/06 08:23:22;;;;;;;29.07;17.67;;;2.10;99.90;;;;;;5058893;28;20443;-92
2022/03/06 08:25:52;;;;;;;28.93;18.97;;;2.30;99.90;;;;;;5062249;28;20482;-91
2022/03/06 08:28:22;;;;;;;27.33;18.67;;;2.20;99.90;;;;;;5060058;28;20424;-90
2022/03/06 08:30:51;;;;;;;23.57;17.23;;;2.30;99.90;;;;;;5069986;28;20918;-82
2022/03/06 08:33:18;;;;;;;26.95;22.92;;;2.50;99.90;;;;;;5069787;28;20425;-85
2022/03/06 08:35:47;;;;;;;29.60;20.17;;;2.70;99.90;;;;;;5089978;28;20625;-87
2022/03/06 08:38:15;;;;;;;27.63;18.80;;;2.30;99.90;;;;;;5090713;28;20514;-88
2022/03/06 08:40:45;;;;;;;28.17;19.03;;;2.30;99.90;;;;;;5090233;28;20438;-92
2022/03/06 08:43:14;;;;;;;25.20;17.60;;;2.30;99.90;;;;;;5088579;28;20423;-93
2022/03/06 08:45:49;;;;;;;26.33;17.53;;;2.30;99.90;;;;;;5087194;28;20493;-92
2022/03/06 08:48:24;;;;;;;28.20;18.70;;;2.40;99.90;;;;;;5088296;28;20422;-90
2022/03/06 08:50:51;;;;;;;27.20;17.87;;;2.50;99.90;;;;;;5084104;28;20453;-90
2022/03/06 08:53:21;;;;;;;30.93;18.47;;;2.40;99.90;;;;;;5085867;28;20838;-93
2022/03/06 08:55:48;;;;;;;27.52;22.50;;;2.30;99.90;;;;;;5086204;28;20432;-92
2022/03/06 08:58:14;;;;;;;32.30;19.07;;;2.50;99.90;;;;;;5086124;28;20190;-90
2022/03/06 09:00:43;;;;;;;24.87;18.50;;;2.50;99.90;;;;;;5085657;28;20521;-93
2022/03/06 09:03:12;;;;;;;27.40;18.63;;;2.70;99.90;;;;;;5082023;28;20453;-86
2022/03/06 09:05:41;;;;;;;24.03;16.50;;;2.70;99.90;;;;;;5079446;28;20490;-92
2022/03/06 09:08:09;;;;;;;24.77;17.17;;;2.90;99.90;;;;;;5078126;28;20541;-76
2022/03/06 09:10:39;;;;;;;28.47;18.27;;;2.90;99.90;;;;;;5061666;28;20450;-90
2022/03/06 09:13:09;;;;;;;27.23;17.93;;;2.80;99.90;;;;;;5059427;28;20450;-90
2022/03/06 09:15:42;;;;;;;27.37;17.47;;;2.90;99.90;;;;;;5059574;28;20440;-92
2022/03/06 09:18:15;;;;;;;23.97;17.47;;;3.00;99.90;;;;;;5067915;28;20446;-87
2022/03/06 09:20:44;;;;;;;23.13;17.13;;;3.30;99.90;;;;;;5079783;28;20431;-89
2022/03/06 09:23:13;;;;;;;25.13;18.00;;;3.30;99.90;;;;;;5081229;28;20457;-89
2022/03/06 09:25:43;;;;;;;29.57;18.27;;;3.50;99.90;;;;;;5077242;28;20490;-83
2022/03/06 09:28:09;;;;;;;34.27;19.70;;;3.40;99.90;;;;;;5077302;28;20457;-91
2022/03/06 09:30:37;;;;;;;25.17;18.63;;;3.40;99.90;;;;;;5080217;28;20446;-91
2022/03/06 09:33:10;;;;;;;23.00;18.07;;;3.60;99.90;;;;;;5081070;28;20426;-91
2022/03/06 09:35:39;;;;;;;21.17;15.67;;;3.80;99.90;;;;;;5083625;28;20800;-92
2022/03/06 09:38:06;;;;;;;22.67;16.87;;;4.10;99.90;;;;;;5084038;28;20440;-86
2022/03/06 09:40:34;;;;;;;20.73;16.40;;;4.20;99.90;;;;;;5082762;28;20435;-81
2022/03/06 09:43:03;;;;;;;21.47;15.07;;;4.40;99.90;;;;;;5086079;28;20429;-76
2022/03/06 09:45:33;;;;;;;22.03;16.60;;;4.30;99.90;;;;;;5088751;28;20482;-89
2022/03/06 09:48:00;;;;;;;21.83;15.27;;;4.10;99.90;;;;;;5091494;28;20430;-86
2022/03/06 09:50:27;;;;;;;22.00;16.07;;;4.00;99.90;;;;;;5090918;28;21075;-80
2022/03/06 09:52:54;;;;;;;21.90;16.40;;;4.20;99.90;;;;;;5085049;28;20427;-92
2022/03/06 09:55:30;;;;;;;22.30;16.30;;;4.20;99.90;;;;;;5078282;28;20447;-89
2022/03/06 09:58:04;;;;;;;20.07;16.37;;;4.50;99.90;;;;;;5077050;28;20442;-93
2022/03/06 10:00:33;;;;;;;21.83;15.73;;;4.50;99.90;;;;;;5074945;28;20463;-89
2022/03/06 10:03:19;;;;;;;24.90;16.50;;;4.60;99.90;;;;;;5068636;28;20952;-90
2022/03/06 10:05:45;;;;;;;19.17;15.00;;;4.50;99.90;;;;;;5056872;28;20479;-95
2022/03/06 10:08:24;;;;;;;20.70;18.48;;;4.50;99.90;;;;;;5054602;28;20425;-92
2022/03/06 10:10:53;;;;;;;22.63;16.50;;;4.70;99.90;;;;;;5054918;28;20202;-76
2022/03/06 10:13:28;;;;;;;22.87;16.60;;;4.80;99.90;;;;;;5054769;28;20442;-91
2022/03/06 10:16:11;;;;;;;21.83;15.47;;;4.70;99.90;;;;;;5036769;28;20447;-91
2022/03/06 10:19:03;;;;;;;20.30;14.77;;;4.70;99.90;;;;;;5061225;28;20458;-93
2022/03/06 10:21:33;;;;;;;18.60;14.90;;;4.90;99.90;;;;;;5075406;28;20447;-87
2022/03/06 10:24:01;;;;;;;21.30;15.67;;;5.10;99.90;;;;;;5074881;28;20802;-82
2022/03/06 10:26:30;;;;;;;19.70;15.23;;;4.90;99.90;;;;;;5069560;28;20916;-81
2022/03/06 10:29:03;;;;;;;19.10;15.10;;;4.80;99.90;;;;;;5056742;28;20454;-92
2022/03/06 10:31:31;;;;;;;20.50;15.37;;;5.10;99.90;;;;;;5059701;28;20447;-83
2022/03/06 10:34:02;;;;;;;21.20;15.63;;;5.20;99.90;;;;;;5065494;28;20446;-79
2022/03/06 10:36:48;;;;;;;21.30;14.23;;;5.10;99.90;;;;;;5057304;28;20877;-82
2022/03/06 10:39:19;;;;;;;19.50;14.60;;;4.90;99.90;;;;;;5066836;28;20443;-92
2022/03/06 10:41:49;;;;;;;20.63;15.90;;;5.20;99.90;;;;;;5058373;28;20451;-91
2022/03/06 10:44:22;;;;;;;20.50;15.63;;;5.40;99.90;;;;;;5059494;28;20439;-92
2022/03/06 10:47:00;;;;;;;19.37;14.67;;;5.40;99.90;;;;;;5059380;28;20486;-92
2022/03/06 10:49:27;;;;;;;21.10;15.67;;;5.40;99.90;;;;;;5058313;28;20925;-79
2022/03/06 10:52:14;;;;;;;25.47;15.70;;;5.40;99.90;;;;;;5057098;28;20431;-87
2022/03/06 10:54:48;;;;;;;22.10;16.13;;;5.50;99.90;;;;;;5067897;28;20445;-83
2022/03/06 10:57:15;;;;;;;23.90;16.10;;;5.40;99.90;;;;;;5076398;28;20461;-83
2022/03/06 10:59:44;;;;;;;20.60;14.10;;;5.40;99.90;;;;;;5076455;28;20442;-82
2022/03/06 11:02:14;;;;;;;21.33;16.43;;;5.40;99.90;;;;;;5076150;28;20435;-86
2022/03/06 11:04:46;;;;;;;23.37;15.60;;;5.40;99.90;;;;;;5076461;28;20571;-91
2022/03/06 11:07:13;;;;;;;18.77;14.97;;;5.60;99.90;;;;;;5076212;28;20486;-89
2022/03/06 11:09:40;;;;;;;21.30;14.43;;;5.70;99.90;;;;;;5076787;28;20449;-91
2022/03/06 11:12:13;;;;;;;20.57;15.37;;;5.80;99.90;;;;;;5077134;28;20437;-91
2022/03/06 11:14:41;;;;;;;21.87;13.83;;;5.70;99.90;;;;;;5076925;28;20430;-90
2022/03/06 11:17:09;;;;;;;18.20;14.07;;;5.70;99.90;;;;;;5076927;28;20449;-84
2022/03/06 11:19:37;;;;;;;17.00;14.10;;;5.70;99.90;;;;;;5075510;28;20422;-77
2022/03/06 11:22:13;;;;;;;17.05;15.35;;;5.80;99.90;;;;;;5074936;28;20458;-87
2022/03/06 11:24:50;;;;;;;19.37;13.93;;;6.00;99.90;;;;;;5077848;28;20197;-92
2022/03/06 11:27:40;;;;;;;16.63;12.43;;;6.10;99.90;;;;;;5076760;28;20680;-89
2022/03/06 11:30:20;;;;;;;13.63;11.57;;;6.30;99.90;;;;;;5076808;28;20204;-89
2022/03/06 11:33:00;;;;;;;13.70;11.40;;;6.20;99.90;;;;;;5076059;28;20243;-74
2022/03/06 11:35:32;;;;;;;15.10;12.33;;;6.40;99.90;;;;;;5073034;28;20194;-75
2022/03/06 11:38:02;;;;;;;15.30;11.87;;;6.50;99.90;;;;;;5074952;28;20201;-82
2022/03/06 11:40:45;;;;;;;12.10;10.80;;;6.50;99.90;;;;;;5074652;28;20197;-74
2022/03/06 11:43:30;;;;;;;15.47;11.87;;;6.70;99.90;;;;;;5076177;28;20227;-79
2022/03/06 11:46:12;;;;;;;15.90;12.53;;;6.70;99.90;;;;;;5075859;28;20214;-87
2022/03/06 11:49:06;;;;;;;18.60;12.53;;;6.80;99.90;;;;;;5070459;28;20196;-78
2022/03/06 11:51:39;;;;;;;18.60;13.30;;;6.80;99.90;;;;;;5076158;28;20210;-75
2022/03/06 11:54:09;;;;;;;16.47;11.97;;;6.70;99.90;;;;;;5066137;28;20209;-91
2022/03/06 11:56:47;;;;;;;13.87;11.80;;;6.70;99.90;;;;;;5073202;28;20664;-92
2022/03/06 11:59:28;;;;;;;15.60;12.07;;;6.90;99.90;;;;;;5069081;28;20206;-88
2022/03/06 12:01:58;;;;;;;13.63;11.40;;;6.70;99.90;;;;;;5067982;28;20199;-93
2022/03/06 12:04:27;;;;;;;14.83;11.30;;;6.90;99.90;;;;;;5057280;28;20198;-91
2022/03/06 12:06:58;;;;;;;12.57;11.27;;;7.20;99.90;;;;;;5056287;28;20219;-85
2022/03/06 12:09:33;;;;;;;14.80;11.60;;;7.30;99.90;;;;;;5056107;28;20198;-74
2022/03/06 12:12:01;;;;;;;15.27;13.27;;;7.00;99.90;;;;;;5054680;28;20421;-75
2022/03/06 12:14:35;;;;;;;14.07;11.83;;;7.10;99.90;;;;;;5055985;28;20186;-81
2022/03/06 12:17:26;;;;;;;13.90;11.77;;;7.30;99.90;;;;;;5055652;28;20650;-87
2022/03/06 12:20:30;;;;;;;16.40;11.50;;;7.40;99.90;;;;;;5055751;28;20237;-90
2022/03/06 12:23:19;;;;;;;15.60;11.93;;;7.30;99.90;;;;;;5055886;28;20281;-86
2022/03/06 12:25:53;;;;;;;17.80;12.10;;;7.20;99.90;;;;;;5055357;28;20194;-92
2022/03/06 12:28:38;;;;;;;15.47;12.20;;;7.10;99.90;;;;;;5055936;28;20206;-84
2022/03/06 12:31:34;;;;;;;16.03;12.60;;;7.20;99.90;;;;;;5056122;28;20187;-90
2022/03/06 12:34:35;;;;;;;15.17;11.60;;;7.30;99.90;;;;;;5055412;28;20285;-91
2022/03/06 12:37:02;;;;;;;15.30;11.97;;;7.20;99.90;;;;;;5055347;28;20210;-92
2022/03/06 12:39:31;;;;;;;18.13;12.67;;;7.30;99.90;;;;;;5055333;28;20191;-90
2022/03/06 12:42:00;;;;;;;19.10;12.70;;;7.20;99.90;;;;;;5073387;28;20205;-91
2022/03/06 12:44:31;;;;;;;16.83;12.63;;;7.20;99.90;;;;;;5075436;28;20198;-77
2022/03/06 12:46:58;;;;;;;13.67;11.67;;;7.40;99.90;;;;;;5075298;28;20233;-90
2022/03/06 12:49:25;;;;;;;17.83;12.20;;;7.50;99.90;;;;;;5074101;28;20206;-76